FNG8 EFKE-EFIV
Flight info
| Callsign | FNG8 |
|---|---|
| Flight time | 1h 4m |
| Altitude | 13000 |
| Route | NEPIX DCT SOTIT |
| Aircraft | D228/L-SDFGHILORVY/S |
Departure
| Time | 2026-04-28 05:38 |
|---|---|
| Airport | Kemi-Tornio Airport (EFKE) |
Arrival
| Time | 2026-04-28 06:42 |
|---|---|
| Airport | Ivalo Airport (EFIV) |
| Time | Latitude | Longitude | Altitude | Speed | Heading |
|---|---|---|---|---|---|
| 2026-04-28 05:34 | 65.78080 | 24.57712 | 41 ft | 0 kts | 329° |
| 2026-04-28 05:35 | 65.78090 | 24.57700 | 39 ft | 8 kts | 335° |
| 2026-04-28 05:35 | 65.78103 | 24.57788 | 45 ft | 9 kts | 146° |
| 2026-04-28 05:36 | 65.78013 | 24.57800 | 44 ft | 19 kts | 188° |
| 2026-04-28 05:36 | 65.77920 | 24.57771 | 44 ft | 8 kts | 187° |
| 2026-04-28 05:36 | 65.77871 | 24.57809 | 45 ft | 7 kts | 82° |
| 2026-04-28 05:36 | 65.77872 | 24.57873 | 45 ft | 4 kts | 92° |
| 2026-04-28 05:37 | 65.77863 | 24.58019 | 45 ft | 12 kts | 95° |
| 2026-04-28 05:37 | 65.77870 | 24.58134 | 47 ft | 4 kts | 40° |
| 2026-04-28 05:37 | 65.77939 | 24.58156 | 47 ft | 37 kts | 8° |
| 2026-04-28 05:37 | 65.78418 | 24.58306 | 202 ft | 88 kts | 7° |
| 2026-04-28 05:38 | 65.79047 | 24.58477 | 725 ft | 94 kts | 9° |
| 2026-04-28 05:38 | 65.79693 | 24.58694 | 1379 ft | 95 kts | 6° |
| 2026-04-28 05:38 | 65.80377 | 24.58924 | 1909 ft | 110 kts | 7° |
| 2026-04-28 05:38 | 65.81195 | 24.59186 | 2371 ft | 121 kts | 9° |
| 2026-04-28 05:39 | 65.82005 | 24.59454 | 3087 ft | 113 kts | 11° |
| 2026-04-28 05:39 | 65.82797 | 24.59711 | 3642 ft | 116 kts | 11° |
| 2026-04-28 05:39 | 65.83603 | 24.59974 | 4213 ft | 117 kts | 11° |
| 2026-04-28 05:39 | 65.84419 | 24.60243 | 4774 ft | 119 kts | 10° |
| 2026-04-28 05:40 | 65.85232 | 24.60506 | 5298 ft | 120 kts | 11° |
| 2026-04-28 05:40 | 65.86046 | 24.60771 | 5887 ft | 117 kts | 10° |
| 2026-04-28 05:40 | 65.86858 | 24.61034 | 6427 ft | 118 kts | 10° |
| 2026-04-28 05:40 | 65.87679 | 24.61301 | 6932 ft | 120 kts | 9° |
| 2026-04-28 05:41 | 65.88521 | 24.61573 | 7405 ft | 123 kts | 9° |
| 2026-04-28 05:41 | 65.89382 | 24.61852 | 7873 ft | 126 kts | 9° |
| 2026-04-28 05:41 | 65.90259 | 24.62136 | 8352 ft | 128 kts | 8° |
| 2026-04-28 05:41 | 65.91156 | 24.62425 | 8823 ft | 131 kts | 8° |
| 2026-04-28 05:42 | 65.92059 | 24.62719 | 9294 ft | 134 kts | 8° |
| 2026-04-28 05:42 | 65.92993 | 24.63023 | 9761 ft | 137 kts | 8° |
| 2026-04-28 05:42 | 65.93947 | 24.63333 | 10221 ft | 139 kts | 8° |
| 2026-04-28 05:42 | 65.94909 | 24.63749 | 10632 ft | 142 kts | 16° |
| 2026-04-28 05:43 | 65.95812 | 24.64809 | 11047 ft | 146 kts | 29° |
| 2026-04-28 05:43 | 65.96581 | 24.66504 | 11458 ft | 153 kts | 44° |
| 2026-04-28 05:43 | 65.97232 | 24.68605 | 11865 ft | 156 kts | 46° |
| 2026-04-28 05:43 | 65.97899 | 24.70723 | 12293 ft | 158 kts | 46° |
| 2026-04-28 05:44 | 65.98573 | 24.72866 | 12704 ft | 160 kts | 47° |
| 2026-04-28 05:44 | 65.99262 | 24.75065 | 13024 ft | 167 kts | 47° |
| 2026-04-28 05:44 | 65.99990 | 24.77395 | 13255 ft | 175 kts | 47° |
| 2026-04-28 05:44 | 66.00749 | 24.79823 | 13292 ft | 188 kts | 48° |
| 2026-04-28 05:45 | 66.01567 | 24.82454 | 13263 ft | 191 kts | 47° |
| 2026-04-28 05:45 | 66.02366 | 24.85024 | 13267 ft | 191 kts | 48° |
| 2026-04-28 05:45 | 66.03173 | 24.87616 | 13269 ft | 192 kts | 48° |
| 2026-04-28 05:45 | 66.03984 | 24.90229 | 13267 ft | 193 kts | 47° |
| 2026-04-28 05:46 | 66.04795 | 24.92843 | 13271 ft | 192 kts | 47° |
| 2026-04-28 05:46 | 66.05605 | 24.95456 | 13272 ft | 192 kts | 48° |
| 2026-04-28 05:46 | 66.06416 | 24.98074 | 13270 ft | 193 kts | 48° |
| 2026-04-28 05:46 | 66.07228 | 25.00704 | 13272 ft | 192 kts | 48° |
| 2026-04-28 05:47 | 66.08037 | 25.03323 | 13274 ft | 192 kts | 48° |
| 2026-04-28 05:47 | 66.08848 | 25.05952 | 13275 ft | 192 kts | 47° |
| 2026-04-28 05:47 | 66.09658 | 25.08581 | 13275 ft | 193 kts | 48° |
| 2026-04-28 05:47 | 66.10509 | 25.11107 | 13269 ft | 189 kts | 39° |
| 2026-04-28 05:48 | 66.11562 | 25.12936 | 13272 ft | 186 kts | 25° |
| 2026-04-28 05:48 | 66.12755 | 25.14110 | 13270 ft | 185 kts | 17° |
| 2026-04-28 05:48 | 66.13970 | 25.15181 | 13270 ft | 186 kts | 18° |
| 2026-04-28 05:48 | 66.15190 | 25.16271 | 13276 ft | 187 kts | 18° |
| 2026-04-28 05:49 | 66.16410 | 25.17359 | 13268 ft | 187 kts | 18° |
| 2026-04-28 05:49 | 66.17631 | 25.18445 | 13269 ft | 186 kts | 18° |
| 2026-04-28 05:49 | 66.18849 | 25.19531 | 13269 ft | 186 kts | 18° |
| 2026-04-28 05:49 | 66.20073 | 25.20621 | 13269 ft | 187 kts | 18° |
| 2026-04-28 05:50 | 66.21284 | 25.21701 | 13271 ft | 188 kts | 18° |
| 2026-04-28 05:50 | 66.22511 | 25.22799 | 13270 ft | 187 kts | 18° |
| 2026-04-28 05:50 | 66.23734 | 25.23893 | 13272 ft | 186 kts | 18° |
| 2026-04-28 05:50 | 66.24955 | 25.24987 | 13270 ft | 187 kts | 18° |
| 2026-04-28 05:51 | 66.26178 | 25.26082 | 13267 ft | 187 kts | 18° |
| 2026-04-28 05:51 | 66.27403 | 25.27182 | 13268 ft | 188 kts | 18° |
| 2026-04-28 05:51 | 66.28629 | 25.28282 | 13268 ft | 187 kts | 18° |
| 2026-04-28 05:51 | 66.29853 | 25.29385 | 13269 ft | 186 kts | 18° |
| 2026-04-28 05:52 | 66.31071 | 25.30480 | 13270 ft | 186 kts | 18° |
| 2026-04-28 05:52 | 66.32274 | 25.31563 | 13262 ft | 187 kts | 18° |
| 2026-04-28 05:52 | 66.33496 | 25.32666 | 13260 ft | 187 kts | 18° |
| 2026-04-28 05:52 | 66.34719 | 25.33769 | 13259 ft | 187 kts | 18° |
| 2026-04-28 05:53 | 66.35937 | 25.34872 | 13256 ft | 186 kts | 18° |
| 2026-04-28 05:53 | 66.37153 | 25.35972 | 13252 ft | 186 kts | 18° |
| 2026-04-28 05:53 | 66.38369 | 25.37072 | 13249 ft | 187 kts | 18° |
| 2026-04-28 05:53 | 66.39597 | 25.38186 | 13249 ft | 188 kts | 18° |
| 2026-04-28 05:54 | 66.40821 | 25.39297 | 13247 ft | 187 kts | 18° |
| 2026-04-28 05:54 | 66.42043 | 25.40408 | 13245 ft | 186 kts | 18° |
| 2026-04-28 05:54 | 66.43262 | 25.41516 | 13242 ft | 187 kts | 18° |
| 2026-04-28 05:54 | 66.44481 | 25.42625 | 13240 ft | 187 kts | 18° |
| 2026-04-28 05:55 | 66.45691 | 25.43730 | 13241 ft | 187 kts | 18° |
| 2026-04-28 05:55 | 66.46918 | 25.44849 | 13242 ft | 187 kts | 18° |
| 2026-04-28 05:55 | 66.48143 | 25.45967 | 13238 ft | 186 kts | 18° |
| 2026-04-28 05:55 | 66.49361 | 25.47082 | 13232 ft | 187 kts | 18° |
| 2026-04-28 05:56 | 66.50582 | 25.48197 | 13231 ft | 188 kts | 18° |
| 2026-04-28 05:56 | 66.51807 | 25.49321 | 13230 ft | 187 kts | 18° |
| 2026-04-28 05:56 | 66.52616 | 25.50063 | 13229 ft | 187 kts | 18° |
| 2026-04-28 05:56 | 66.53841 | 25.51187 | 13229 ft | 187 kts | 18° |
| 2026-04-28 05:57 | 66.55458 | 25.52672 | 13228 ft | 187 kts | 18° |
| 2026-04-28 05:57 | 66.56680 | 25.53795 | 13226 ft | 188 kts | 18° |
| 2026-04-28 05:57 | 66.57910 | 25.54930 | 13224 ft | 188 kts | 18° |
| 2026-04-28 05:57 | 66.59136 | 25.56061 | 13227 ft | 188 kts | 18° |
| 2026-04-28 05:58 | 66.59945 | 25.56806 | 13225 ft | 187 kts | 18° |
| 2026-04-28 05:58 | 66.61164 | 25.57932 | 13223 ft | 187 kts | 18° |
| 2026-04-28 05:58 | 66.62385 | 25.59060 | 13226 ft | 187 kts | 18° |
| 2026-04-28 05:58 | 66.63612 | 25.60196 | 13222 ft | 189 kts | 18° |
| 2026-04-28 05:59 | 66.64841 | 25.61334 | 13214 ft | 187 kts | 18° |
| 2026-04-28 05:59 | 66.66059 | 25.62467 | 13216 ft | 186 kts | 17° |
| 2026-04-28 05:59 | 66.67276 | 25.63595 | 13215 ft | 186 kts | 17° |
| 2026-04-28 05:59 | 66.68492 | 25.64724 | 13216 ft | 187 kts | 18° |
| 2026-04-28 06:00 | 66.69700 | 25.65850 | 13218 ft | 187 kts | 18° |
| 2026-04-28 06:00 | 66.70917 | 25.66981 | 13225 ft | 187 kts | 18° |
| 2026-04-28 06:00 | 66.72136 | 25.68120 | 13229 ft | 186 kts | 17° |
| 2026-04-28 06:00 | 66.73349 | 25.69251 | 13230 ft | 186 kts | 18° |
| 2026-04-28 06:01 | 66.74567 | 25.70389 | 13235 ft | 187 kts | 18° |
| 2026-04-28 06:01 | 66.75792 | 25.71535 | 13237 ft | 188 kts | 18° |
| 2026-04-28 06:01 | 66.77017 | 25.72681 | 13242 ft | 187 kts | 18° |
| 2026-04-28 06:01 | 66.78237 | 25.73825 | 13248 ft | 187 kts | 17° |
| 2026-04-28 06:02 | 66.79454 | 25.74967 | 13249 ft | 187 kts | 18° |
| 2026-04-28 06:02 | 66.80656 | 25.76096 | 13284 ft | 187 kts | 18° |
| 2026-04-28 06:02 | 66.81882 | 25.77249 | 13284 ft | 188 kts | 17° |
| 2026-04-28 06:02 | 66.83105 | 25.78400 | 13285 ft | 187 kts | 18° |
| 2026-04-28 06:03 | 66.84324 | 25.79550 | 13287 ft | 186 kts | 17° |
| 2026-04-28 06:03 | 66.85540 | 25.80695 | 13284 ft | 187 kts | 18° |
| 2026-04-28 06:03 | 66.86755 | 25.81843 | 13286 ft | 187 kts | 17° |
| 2026-04-28 06:03 | 66.87975 | 25.82996 | 13284 ft | 187 kts | 17° |
| 2026-04-28 06:04 | 66.89194 | 25.84150 | 13286 ft | 187 kts | 18° |
| 2026-04-28 06:04 | 66.90416 | 25.85311 | 13286 ft | 186 kts | 18° |
| 2026-04-28 06:04 | 66.91632 | 25.86461 | 13286 ft | 187 kts | 18° |
| 2026-04-28 06:04 | 66.92834 | 25.87600 | 13284 ft | 187 kts | 18° |
| 2026-04-28 06:05 | 66.94057 | 25.88764 | 13287 ft | 187 kts | 18° |
| 2026-04-28 06:05 | 66.95276 | 25.89923 | 13287 ft | 187 kts | 18° |
| 2026-04-28 06:05 | 66.96492 | 25.91082 | 13289 ft | 187 kts | 18° |
| 2026-04-28 06:05 | 66.97708 | 25.92242 | 13289 ft | 187 kts | 18° |
| 2026-04-28 06:06 | 66.98927 | 25.93404 | 13285 ft | 187 kts | 18° |
| 2026-04-28 06:06 | 67.00150 | 25.94573 | 13286 ft | 188 kts | 18° |
| 2026-04-28 06:06 | 67.01374 | 25.95744 | 13286 ft | 187 kts | 18° |
| 2026-04-28 06:06 | 67.02589 | 25.96908 | 13288 ft | 186 kts | 18° |
| 2026-04-28 06:07 | 67.03804 | 25.98072 | 13286 ft | 187 kts | 18° |
| 2026-04-28 06:07 | 67.05021 | 25.99239 | 13286 ft | 187 kts | 18° |
| 2026-04-28 06:07 | 67.06225 | 26.00395 | 13287 ft | 187 kts | 18° |
| 2026-04-28 06:07 | 67.07445 | 26.01569 | 13287 ft | 187 kts | 18° |
| 2026-04-28 06:08 | 67.08667 | 26.02746 | 13284 ft | 188 kts | 18° |
| 2026-04-28 06:08 | 67.09893 | 26.03927 | 13285 ft | 188 kts | 18° |
| 2026-04-28 06:08 | 67.11120 | 26.05111 | 13284 ft | 189 kts | 18° |
| 2026-04-28 06:08 | 67.12338 | 26.06286 | 13286 ft | 189 kts | 18° |
| 2026-04-28 06:09 | 67.13570 | 26.07479 | 13286 ft | 189 kts | 18° |
| 2026-04-28 06:09 | 67.14801 | 26.08670 | 13284 ft | 189 kts | 18° |
| 2026-04-28 06:09 | 67.16029 | 26.09860 | 13283 ft | 189 kts | 18° |
| 2026-04-28 06:09 | 67.17259 | 26.11052 | 13284 ft | 189 kts | 18° |
| 2026-04-28 06:10 | 67.18490 | 26.12248 | 13286 ft | 189 kts | 18° |
| 2026-04-28 06:10 | 67.19722 | 26.13445 | 13286 ft | 189 kts | 18° |
| 2026-04-28 06:10 | 67.20948 | 26.14639 | 13285 ft | 188 kts | 18° |
| 2026-04-28 06:10 | 67.22174 | 26.15834 | 13285 ft | 188 kts | 18° |
| 2026-04-28 06:11 | 67.23403 | 26.17031 | 13286 ft | 188 kts | 18° |
| 2026-04-28 06:11 | 67.24614 | 26.18214 | 13287 ft | 189 kts | 18° |
| 2026-04-28 06:11 | 67.25844 | 26.19418 | 13287 ft | 189 kts | 18° |
| 2026-04-28 06:11 | 67.27071 | 26.20618 | 13286 ft | 188 kts | 18° |
| 2026-04-28 06:12 | 67.28299 | 26.21820 | 13283 ft | 188 kts | 18° |
| 2026-04-28 06:12 | 67.29525 | 26.23022 | 13284 ft | 189 kts | 18° |
| 2026-04-28 06:12 | 67.30757 | 26.24232 | 13283 ft | 189 kts | 18° |
| 2026-04-28 06:12 | 67.31985 | 26.25439 | 13283 ft | 188 kts | 18° |
| 2026-04-28 06:13 | 67.33213 | 26.26647 | 13284 ft | 188 kts | 18° |
| 2026-04-28 06:13 | 67.34435 | 26.27851 | 13283 ft | 188 kts | 18° |
| 2026-04-28 06:13 | 67.35663 | 26.29061 | 13283 ft | 189 kts | 18° |
| 2026-04-28 06:13 | 67.36878 | 26.30261 | 13286 ft | 189 kts | 18° |
| 2026-04-28 06:14 | 67.38106 | 26.31474 | 13284 ft | 189 kts | 18° |
| 2026-04-28 06:14 | 67.39335 | 26.32689 | 13280 ft | 189 kts | 18° |
| 2026-04-28 06:14 | 67.40564 | 26.33908 | 13280 ft | 189 kts | 18° |
| 2026-04-28 06:14 | 67.41792 | 26.35125 | 13280 ft | 189 kts | 18° |
| 2026-04-28 06:15 | 67.43022 | 26.36345 | 13279 ft | 189 kts | 18° |
| 2026-04-28 06:15 | 67.44250 | 26.37566 | 13279 ft | 189 kts | 18° |
| 2026-04-28 06:15 | 67.45476 | 26.38786 | 13280 ft | 188 kts | 18° |
| 2026-04-28 06:15 | 67.46686 | 26.39991 | 13280 ft | 189 kts | 18° |
| 2026-04-28 06:16 | 67.47915 | 26.41217 | 13282 ft | 189 kts | 18° |
| 2026-04-28 06:16 | 67.49143 | 26.42442 | 13281 ft | 189 kts | 18° |
| 2026-04-28 06:16 | 67.50373 | 26.43670 | 13282 ft | 189 kts | 18° |
| 2026-04-28 06:16 | 67.51602 | 26.44899 | 13279 ft | 189 kts | 18° |
| 2026-04-28 06:17 | 67.52829 | 26.46130 | 13280 ft | 189 kts | 18° |
| 2026-04-28 06:17 | 67.54060 | 26.47363 | 13278 ft | 189 kts | 18° |
| 2026-04-28 06:17 | 67.55274 | 26.48582 | 13279 ft | 189 kts | 18° |
| 2026-04-28 06:18 | 67.57728 | 26.51049 | 13278 ft | 189 kts | 19° |
| 2026-04-28 06:18 | 67.58955 | 26.52285 | 13277 ft | 189 kts | 18° |
| 2026-04-28 06:18 | 67.60186 | 26.53526 | 13277 ft | 189 kts | 19° |
| 2026-04-28 06:18 | 67.61412 | 26.54761 | 13279 ft | 189 kts | 18° |
| 2026-04-28 06:19 | 67.62642 | 26.56005 | 13282 ft | 189 kts | 18° |
| 2026-04-28 06:19 | 67.63868 | 26.57245 | 13276 ft | 189 kts | 18° |
| 2026-04-28 06:19 | 67.65080 | 26.58474 | 13289 ft | 189 kts | 19° |
| 2026-04-28 06:19 | 67.66308 | 26.59718 | 13288 ft | 189 kts | 18° |
| 2026-04-28 06:20 | 67.67534 | 26.60961 | 13286 ft | 189 kts | 19° |
| 2026-04-28 06:20 | 67.68760 | 26.62208 | 13286 ft | 189 kts | 18° |
| 2026-04-28 06:20 | 67.69983 | 26.63453 | 13294 ft | 188 kts | 19° |
| 2026-04-28 06:20 | 67.71210 | 26.64700 | 13290 ft | 189 kts | 19° |
| 2026-04-28 06:21 | 67.72437 | 26.65952 | 13288 ft | 189 kts | 19° |
| 2026-04-28 06:21 | 67.73649 | 26.67189 | 13290 ft | 189 kts | 19° |
| 2026-04-28 06:21 | 67.74872 | 26.68438 | 13291 ft | 188 kts | 18° |
| 2026-04-28 06:21 | 67.76098 | 26.69692 | 13287 ft | 188 kts | 19° |
| 2026-04-28 06:22 | 67.77321 | 26.70945 | 13282 ft | 189 kts | 19° |
| 2026-04-28 06:22 | 67.78547 | 26.72201 | 13282 ft | 189 kts | 19° |
| 2026-04-28 06:22 | 67.79775 | 26.73462 | 13284 ft | 189 kts | 19° |
| 2026-04-28 06:22 | 67.80984 | 26.74705 | 13286 ft | 188 kts | 19° |
| 2026-04-28 06:23 | 67.82205 | 26.75960 | 13288 ft | 188 kts | 19° |
| 2026-04-28 06:23 | 67.83426 | 26.77217 | 13288 ft | 188 kts | 19° |
| 2026-04-28 06:23 | 67.84651 | 26.78480 | 13289 ft | 189 kts | 19° |
| 2026-04-28 06:23 | 67.85876 | 26.79745 | 13288 ft | 189 kts | 19° |
| 2026-04-28 06:24 | 67.87099 | 26.81010 | 13289 ft | 188 kts | 19° |
| 2026-04-28 06:24 | 67.88316 | 26.82268 | 13288 ft | 188 kts | 19° |
| 2026-04-28 06:24 | 67.89536 | 26.83530 | 13284 ft | 188 kts | 19° |
| 2026-04-28 06:24 | 67.90759 | 26.84799 | 13285 ft | 189 kts | 19° |
| 2026-04-28 06:25 | 67.91983 | 26.86070 | 13282 ft | 188 kts | 19° |
| 2026-04-28 06:25 | 67.93191 | 26.87327 | 13283 ft | 188 kts | 19° |
| 2026-04-28 06:25 | 67.94414 | 26.88598 | 13282 ft | 188 kts | 19° |
| 2026-04-28 06:25 | 67.95634 | 26.89867 | 13281 ft | 188 kts | 19° |
| 2026-04-28 06:26 | 67.96858 | 26.91144 | 13284 ft | 189 kts | 19° |
| 2026-04-28 06:26 | 67.98081 | 26.92420 | 13285 ft | 189 kts | 19° |
| 2026-04-28 06:26 | 67.99301 | 26.93696 | 13286 ft | 188 kts | 19° |
| 2026-04-28 06:26 | 68.00517 | 26.94968 | 13284 ft | 188 kts | 19° |
| 2026-04-28 06:27 | 68.01735 | 26.96242 | 13279 ft | 189 kts | 19° |
| 2026-04-28 06:27 | 68.02960 | 26.97528 | 13280 ft | 190 kts | 19° |
| 2026-04-28 06:27 | 68.04186 | 26.98816 | 13281 ft | 189 kts | 19° |
| 2026-04-28 06:27 | 68.05408 | 27.00100 | 13283 ft | 188 kts | 19° |
| 2026-04-28 06:28 | 68.06627 | 27.01381 | 13281 ft | 189 kts | 19° |
| 2026-04-28 06:28 | 68.07832 | 27.02650 | 13255 ft | 190 kts | 19° |
| 2026-04-28 06:28 | 68.09097 | 27.03983 | 12980 ft | 198 kts | 19° |
| 2026-04-28 06:28 | 68.10381 | 27.05339 | 12715 ft | 199 kts | 19° |
| 2026-04-28 06:29 | 68.11668 | 27.06700 | 12451 ft | 198 kts | 19° |
| 2026-04-28 06:29 | 68.12949 | 27.08056 | 12186 ft | 198 kts | 19° |
| 2026-04-28 06:29 | 68.14229 | 27.09413 | 11921 ft | 197 kts | 19° |
| 2026-04-28 06:29 | 68.15506 | 27.10767 | 11658 ft | 197 kts | 19° |
| 2026-04-28 06:30 | 68.16775 | 27.12116 | 11397 ft | 195 kts | 19° |
| 2026-04-28 06:30 | 68.18009 | 27.13436 | 11139 ft | 192 kts | 19° |
| 2026-04-28 06:30 | 68.19245 | 27.14753 | 10881 ft | 190 kts | 19° |
| 2026-04-28 06:30 | 68.20477 | 27.16064 | 10623 ft | 190 kts | 19° |
| 2026-04-28 06:31 | 68.21702 | 27.17372 | 10367 ft | 189 kts | 19° |
| 2026-04-28 06:31 | 68.22921 | 27.18644 | 10108 ft | 186 kts | 16° |
| 2026-04-28 06:31 | 68.24191 | 27.19242 | 9796 ft | 186 kts | 3° |
| 2026-04-28 06:31 | 68.25482 | 27.19050 | 9446 ft | 184 kts | 356° |
| 2026-04-28 06:32 | 68.26753 | 27.18781 | 9079 ft | 182 kts | 357° |
| 2026-04-28 06:32 | 68.28014 | 27.18522 | 8723 ft | 181 kts | 357° |
| 2026-04-28 06:32 | 68.29249 | 27.18260 | 8376 ft | 180 kts | 357° |
| 2026-04-28 06:32 | 68.30495 | 27.17992 | 8027 ft | 179 kts | 358° |
| 2026-04-28 06:33 | 68.31724 | 27.17718 | 7690 ft | 175 kts | 357° |
| 2026-04-28 06:33 | 68.32930 | 27.17452 | 7380 ft | 173 kts | 358° |
| 2026-04-28 06:33 | 68.34131 | 27.17195 | 7075 ft | 173 kts | 358° |
| 2026-04-28 06:33 | 68.35331 | 27.16940 | 6793 ft | 172 kts | 358° |
| 2026-04-28 06:34 | 68.36526 | 27.16685 | 6498 ft | 172 kts | 358° |
| 2026-04-28 06:34 | 68.37716 | 27.16428 | 6195 ft | 171 kts | 358° |
| 2026-04-28 06:34 | 68.38895 | 27.16173 | 5892 ft | 169 kts | 358° |
| 2026-04-28 06:34 | 68.40053 | 27.15761 | 5593 ft | 169 kts | 349° |
| 2026-04-28 06:35 | 68.41135 | 27.14572 | 5298 ft | 171 kts | 336° |
| 2026-04-28 06:35 | 68.42097 | 27.12604 | 5004 ft | 175 kts | 323° |
| 2026-04-28 06:35 | 68.42977 | 27.10311 | 4696 ft | 174 kts | 324° |
| 2026-04-28 06:35 | 68.43858 | 27.08102 | 4409 ft | 167 kts | 327° |
| 2026-04-28 06:36 | 68.44853 | 27.06822 | 4230 ft | 155 kts | 356° |
| 2026-04-28 06:36 | 68.45912 | 27.06401 | 4072 ft | 155 kts | 350° |
| 2026-04-28 06:36 | 68.46961 | 27.05690 | 3903 ft | 156 kts | 349° |
| 2026-04-28 06:36 | 68.48016 | 27.05193 | 3742 ft | 153 kts | 6° |
| 2026-04-28 06:37 | 68.48961 | 27.06469 | 3633 ft | 154 kts | 35° |
| 2026-04-28 06:37 | 68.49732 | 27.08473 | 3631 ft | 153 kts | 40° |
| 2026-04-28 06:37 | 68.50462 | 27.10564 | 3592 ft | 154 kts | 40° |
| 2026-04-28 06:37 | 68.51167 | 27.12636 | 3375 ft | 140 kts | 40° |
| 2026-04-28 06:38 | 68.51831 | 27.14568 | 3158 ft | 140 kts | 40° |
| 2026-04-28 06:38 | 68.52499 | 27.16505 | 2953 ft | 140 kts | 40° |
| 2026-04-28 06:38 | 68.53161 | 27.18426 | 2743 ft | 141 kts | 40° |
| 2026-04-28 06:38 | 68.53836 | 27.20388 | 2490 ft | 142 kts | 40° |
| 2026-04-28 06:39 | 68.54434 | 27.22166 | 2281 ft | 116 kts | 39° |
| 2026-04-28 06:39 | 68.54978 | 27.23743 | 2103 ft | 112 kts | 39° |
| 2026-04-28 06:39 | 68.55503 | 27.25276 | 1953 ft | 108 kts | 40° |
| 2026-04-28 06:39 | 68.56016 | 27.26755 | 1768 ft | 106 kts | 38° |
| 2026-04-28 06:40 | 68.56510 | 27.28200 | 1581 ft | 105 kts | 39° |
| 2026-04-28 06:40 | 68.57015 | 27.29661 | 1416 ft | 107 kts | 40° |
| 2026-04-28 06:40 | 68.57522 | 27.31149 | 1257 ft | 108 kts | 40° |
| 2026-04-28 06:40 | 68.58038 | 27.32660 | 1091 ft | 108 kts | 40° |
| 2026-04-28 06:41 | 68.58535 | 27.34169 | 925 ft | 102 kts | 37° |
| 2026-04-28 06:41 | 68.59020 | 27.35512 | 796 ft | 97 kts | 39° |
| 2026-04-28 06:41 | 68.59463 | 27.36804 | 655 ft | 88 kts | 34° |
| 2026-04-28 06:41 | 68.59878 | 27.38001 | 533 ft | 88 kts | 41° |
| 2026-04-28 06:42 | 68.60264 | 27.39172 | 470 ft | 70 kts | 45° |
| 2026-04-28 06:42 | 68.60519 | 27.39908 | 473 ft | 39 kts | 44° |
| 2026-04-28 06:42 | 68.60640 | 27.40332 | 473 ft | 18 kts | 83° |
| 2026-04-28 06:42 | 68.60632 | 27.40763 | 473 ft | 26 kts | 91° |
| 2026-04-28 06:43 | 68.60662 | 27.41017 | 473 ft | 13 kts | 45° |
| 2026-04-28 06:43 | 68.60736 | 27.41231 | 473 ft | 18 kts | 46° |
| 2026-04-28 06:43 | 68.60758 | 27.41417 | 473 ft | 9 kts | 133° |
| 2026-04-28 06:43 | 68.60736 | 27.41534 | 473 ft | 8 kts | 55° |
| 2026-04-28 06:44 | 68.60749 | 27.41583 | 471 ft | 0 kts | 54° |